Frobisher Bay: Past 24 Hour Conditions

 

Pond Inlet Airport

12:00 AM EDT 25 April 2014
This table is a summary of hourly weather conditions for the past 24 hours.
Date / Time
(EDT)
Wind(knots) Conditions Visibility(km) Pressure(kPa) Air tempC) Relative humidity(%) Dew pointC) Wind Chill
25 April 2014
0:00 NE 3 Light Snow 2 102.3 -17 85 -19 -21
24 April 2014
23:00 NE 4 Light Snow 4 102.3 -17 85 -19 -23
22:00 NE 3 Light Snow 8 102.3 -17 85 -19 -21
21:00 calm Light Snow 13 102.3 -17 86 -19 *
20:00 NE 2 Light Snow 4 102.3 -17 83 -19 -20
19:00 N 2 Light Snow 10 102.3 -17 82 -19 -20
18:00 N 1 Light Snow 19 102.3 -17 80 -19 -18
17:00 NW 2 Light Snow 23 102.3 -17 80 -20 -19
16:00 W 2 Light Snow 23 102.3 -17 78 -20 -20
15:00 SW 3 Light Snow 23 102.3 -17 78 -20 -21
14:00 SW 3 Light Snow 23 102.3 -18 78 -21 -23
13:00 WSW 6 Mostly Cloudy 16 102.2 -18 80 -21 -25
12:00 SW 3 Mainly Sunny 16 102.2 -18 78 -21 -22
11:00 SW 4 Mainly Sunny 16 102.2 -19 78 -22 -24
10:00 calm Partly Cloudy 16 102.2 -18 75 -21 *
9:00 SSE 7 Cloudy 16 102.2 -18 75 -21 -26
8:00 SE 8 Cloudy 15 102.1 -19 76 -22 -28
7:00 SE 10 Sunny 16 102.1 -21 75 -24 -31
6:00 SSE 10 Light Snow 16 102.1 -21 79 -24 -31
5:00 SSE 10 Mostly Cloudy 16 102.1 -21 80 -24 -31
4:00 SSE 8 Light Snow 15 102.1 -21 81 -23 -30
3:00 S 8 Light Snow 13 102.0 -21 82 -23 -30
2:00 SSW 6 Light Snow 4 102.0 -20 83 -22 -27
1:00 SSW 8 Light Snow 10 102.0 -20 83 -22 -29
0:00 S 8 Light Snow 16 101.9 -21 82 -23 -30
 
Map of Arctic - Eastern Arctic marine weather areas Baker Lake Airport Chesterfield Inlet Airport Coral Harbour Airport Gjoa Haven Airport Kugaaruk Airport Rankin Inlet Airport Shepherd Bay Airport Whale Cove Airport Arctic Bay Brevoort Island Qikiqtarjuaq Airport Cape Dorset Airport Cape Dyer Cape Hooper Clyde Airport Grise Fiord Airport Hall Beach Airport Igloolik Airport Iqaluit Airport Longstaff Bluff Pangnirtung Airport Pond Inlet Airport Repulse Bay Airport Resolute Airport Resolution Island Rowley Island Airport Taloyoak Airport Wager Bay Akulivik Airport Ivujivik Airport Puvirnituq Airport Kangiqsujuaq Airport Kangirsuk Airport Quaqtaq Airport Tasiujaq Airport Cape Kakkiviak Cape Kiglapait Nain Airport Saglek Cape Mercy Kimmirut Airport Aupaluk Airport Salluit Airport Kangiqsualujjuaq Airport Fort Ross
Legend: buoyBuoy land stationLand Station